createdAt,value
2022-12-28T00:01:13.557Z,3.50
2022-12-28T00:03:40.479Z,3.55
2022-12-28T00:06:07.426Z,3.97
2022-12-28T00:08:33.994Z,3.88
2022-12-28T00:11:11.375Z,2.90
2022-12-28T00:13:41.656Z,3.30
2022-12-28T00:16:18.842Z,3.10
2022-12-28T00:18:45.301Z,4.18
2022-12-28T00:21:11.736Z,3.85
2022-12-28T00:23:38.231Z,3.20
2022-12-28T00:26:09.457Z,3.33
2022-12-28T00:28:36.225Z,3.38
2022-12-28T00:31:02.972Z,3.05
2022-12-28T00:33:30.084Z,3.63
2022-12-28T00:35:58.067Z,3.92
2022-12-28T00:38:25.019Z,4.78
2022-12-28T00:40:51.614Z,4.20
2022-12-28T00:43:18.069Z,4.28
2022-12-28T00:45:45.654Z,3.80
2022-12-28T00:50:38.832Z,4.40
2022-12-28T00:53:05.361Z,3.95
2022-12-28T00:55:33.707Z,4.13
2022-12-28T00:58:01.114Z,4.43
2022-12-28T01:00:28.517Z,4.05
2022-12-28T01:02:55.507Z,4.72
2022-12-28T01:05:23.253Z,4.63
2022-12-28T01:07:50.176Z,4.22
2022-12-28T01:10:16.736Z,3.47
2022-12-28T01:12:43.406Z,3.78
2022-12-28T01:15:11.968Z,3.67
2022-12-28T01:17:38.810Z,3.92
2022-12-28T01:20:06.302Z,3.53
2022-12-28T01:22:32.840Z,3.85
2022-12-28T01:24:59.812Z,4.28
2022-12-28T01:27:26.334Z,3.92
2022-12-28T01:29:52.815Z,3.63
2022-12-28T01:32:19.181Z,4.22
2022-12-28T01:34:45.622Z,3.30
2022-12-28T01:37:12.077Z,3.80
2022-12-28T01:39:38.556Z,3.92
2022-12-28T01:42:05.146Z,3.60
2022-12-28T01:44:44.890Z,3.40
2022-12-28T01:47:18.390Z,3.78
2022-12-28T01:49:50.516Z,3.20
2022-12-28T01:52:38.415Z,4.60
2022-12-28T01:55:17.342Z,4.30
2022-12-28T01:57:53.553Z,3.00
2022-12-28T02:00:20.177Z,3.60
2022-12-28T02:02:57.701Z,3.63
2022-12-28T02:05:29.841Z,3.78
2022-12-28T02:08:10.745Z,3.10
2022-12-28T02:10:42.240Z,3.67
2022-12-28T02:13:12.600Z,3.42
2022-12-28T02:15:39.220Z,3.55
2022-12-28T02:18:06.182Z,4.28
2022-12-28T02:21:00.001Z,4.05
2022-12-28T02:23:50.843Z,3.25
2022-12-28T02:26:29.446Z,3.42
2022-12-28T02:29:08.189Z,4.43
2022-12-28T02:31:53.218Z,3.30
2022-12-28T02:34:27.543Z,3.72
2022-12-28T02:37:11.206Z,3.60
2022-12-28T02:39:44.203Z,3.63
2022-12-28T02:42:12.599Z,3.83
2022-12-28T02:44:57.437Z,3.65
2022-12-28T02:47:42.830Z,2.70
2022-12-28T02:50:13.763Z,3.45
2022-12-28T02:52:51.451Z,3.40
2022-12-28T02:55:44.166Z,3.92
2022-12-28T02:58:31.731Z,3.58
2022-12-28T03:01:16.478Z,3.63
2022-12-28T03:04:24.714Z,4.20
2022-12-28T03:07:35.044Z,3.78
2022-12-28T03:10:07.170Z,4.55
2022-12-28T03:12:44.981Z,3.80
2022-12-28T03:15:29.628Z,4.38
2022-12-28T03:18:33.339Z,4.63
2022-12-28T03:21:21.664Z,4.97
2022-12-28T03:24:09.528Z,5.22
2022-12-28T03:27:00.298Z,3.70
2022-12-28T03:29:47.858Z,5.00
2022-12-28T03:32:14.732Z,4.30
2022-12-28T03:34:41.482Z,4.60
2022-12-28T03:37:18.257Z,5.18
2022-12-28T03:39:53.062Z,4.47
2022-12-28T03:43:02.892Z,5.93
2022-12-28T03:45:45.297Z,5.25
2022-12-28T03:48:15.696Z,5.55
2022-12-28T03:50:45.627Z,5.20
2022-12-28T03:53:12.330Z,5.68
2022-12-28T03:55:40.441Z,5.67
2022-12-28T03:58:07.089Z,5.30
2022-12-28T04:00:33.681Z,5.20
2022-12-28T04:03:00.118Z,5.15
2022-12-28T04:05:26.650Z,5.22
2022-12-28T04:07:53.470Z,6.13
2022-12-28T04:10:19.915Z,5.47
2022-12-28T04:12:46.418Z,6.30
2022-12-28T04:15:12.907Z,6.38
2022-12-28T04:17:40.346Z,6.00
2022-12-28T04:20:07.333Z,6.07
2022-12-28T04:22:33.704Z,5.32
2022-12-28T04:25:01.212Z,5.50
2022-12-28T04:27:27.620Z,6.82
2022-12-28T04:29:54.031Z,5.50
2022-12-28T04:32:20.414Z,6.22
2022-12-28T04:34:48.977Z,6.57
2022-12-28T04:37:15.609Z,5.65
2022-12-28T04:39:54.940Z,7.20
2022-12-28T04:42:23.066Z,6.35
2022-12-28T04:44:49.496Z,5.45
2022-12-28T04:47:15.948Z,5.57
2022-12-28T04:49:42.341Z,4.82
2022-12-28T04:52:08.780Z,6.07
2022-12-28T04:54:35.237Z,5.90
2022-12-28T04:57:01.722Z,5.90
2022-12-28T04:59:28.116Z,7.00
2022-12-28T05:01:54.688Z,7.15
2022-12-28T05:04:21.291Z,6.47
2022-12-28T05:06:47.781Z,6.43
2022-12-28T05:09:14.203Z,6.03
2022-12-28T05:11:40.668Z,6.53
2022-12-28T05:14:07.163Z,6.45
2022-12-28T05:16:33.687Z,6.85
2022-12-28T05:19:00.230Z,6.22
2022-12-28T05:21:28.487Z,7.30
2022-12-28T05:23:55.657Z,6.22
2022-12-28T05:26:25.081Z,6.43
2022-12-28T05:28:51.845Z,7.20
2022-12-28T05:31:20.737Z,7.10
2022-12-28T05:33:47.703Z,6.32
2022-12-28T05:36:16.849Z,7.00
2022-12-28T05:38:43.759Z,7.22
2022-12-28T05:41:19.999Z,6.25
2022-12-28T05:43:47.408Z,7.00
2022-12-28T05:46:24.214Z,6.32
2022-12-28T05:48:51.075Z,6.18
2022-12-28T05:51:19.865Z,5.93
2022-12-28T05:53:46.940Z,8.55
2022-12-28T05:56:15.191Z,8.73
2022-12-28T05:58:46.606Z,6.80
2022-12-28T06:01:16.107Z,6.85
2022-12-28T06:03:43.313Z,7.32
2022-12-28T06:06:12.527Z,6.30
2022-12-28T06:08:40.573Z,7.18
2022-12-28T06:11:09.698Z,7.05
2022-12-28T06:13:36.552Z,6.63
2022-12-28T06:16:17.177Z,5.63
2022-12-28T06:18:44.681Z,6.57
2022-12-28T06:23:44.882Z,6.60
2022-12-28T06:26:14.692Z,7.22
2022-12-28T06:28:42.156Z,5.00
2022-12-28T06:31:16.133Z,5.70
2022-12-28T06:33:43.287Z,6.82
2022-12-28T06:36:20.638Z,6.78
2022-12-28T06:38:51.637Z,6.55
2022-12-28T06:41:19.837Z,8.20
2022-12-28T06:43:47.074Z,6.05
2022-12-28T06:46:15.070Z,5.75
2022-12-28T06:48:42.302Z,5.20
2022-12-28T06:51:11.986Z,6.30
2022-12-28T06:53:38.948Z,6.63
2022-12-28T06:56:11.454Z,7.15
2022-12-28T06:58:38.182Z,5.30
2022-12-28T07:01:22.178Z,6.88
2022-12-28T07:03:50.610Z,4.15
2022-12-28T07:06:18.721Z,5.68
2022-12-28T07:08:45.941Z,5.07
2022-12-28T07:11:15.803Z,5.97
2022-12-28T07:13:42.768Z,5.80
2022-12-28T07:16:20.675Z,6.43
2022-12-28T07:18:47.601Z,5.88
2022-12-28T07:21:26.098Z,5.63
2022-12-28T07:23:54.941Z,5.38
2022-12-28T07:26:24.508Z,5.47
2022-12-28T07:28:53.019Z,5.60
2022-12-28T07:31:24.894Z,5.47
2022-12-28T07:33:55.366Z,5.00
2022-12-28T07:36:23.557Z,4.80
2022-12-28T07:38:50.734Z,4.85
2022-12-28T07:41:23.178Z,5.68
2022-12-28T07:43:50.337Z,5.25
2022-12-28T07:46:19.325Z,4.63
2022-12-28T07:48:45.862Z,5.30
2022-12-28T07:51:14.648Z,5.32
2022-12-28T07:53:42.960Z,5.68
2022-12-28T07:56:09.862Z,4.90
2022-12-28T07:58:36.893Z,5.15
2022-12-28T08:01:14.671Z,5.53
2022-12-28T08:03:42.120Z,5.70
2022-12-28T08:06:11.555Z,5.55
2022-12-28T08:08:40.242Z,5.65
2022-12-28T08:11:12.494Z,5.68
2022-12-28T08:13:41.387Z,4.93
2022-12-28T08:16:10.047Z,5.93
2022-12-28T08:18:36.582Z,5.75
2022-12-28T08:21:06.342Z,5.03
2022-12-28T08:23:33.170Z,6.43
2022-12-28T08:26:06.810Z,4.65
2022-12-28T08:28:33.428Z,5.95
2022-12-28T08:31:06.376Z,8.13
2022-12-28T08:33:32.794Z,5.57
2022-12-28T08:35:59.209Z,6.35
2022-12-28T08:38:25.578Z,6.13
2022-12-28T08:41:00.752Z,7.03
2022-12-28T08:43:28.442Z,5.03
2022-12-28T08:46:03.561Z,5.35
2022-12-28T08:48:30.107Z,5.78
2022-12-28T08:51:01.850Z,6.35
2022-12-28T08:53:28.666Z,5.38
2022-12-28T08:55:55.102Z,5.45
2022-12-28T08:58:21.608Z,5.20
2022-12-28T09:00:48.097Z,4.25
2022-12-28T09:03:14.701Z,4.57
2022-12-28T09:05:41.313Z,5.25
2022-12-28T09:08:07.748Z,4.35
2022-12-28T09:10:34.261Z,5.32
2022-12-28T09:13:00.713Z,5.10
2022-12-28T09:15:27.261Z,5.80
2022-12-28T09:17:53.728Z,6.93
2022-12-28T09:20:20.524Z,11.95
2022-12-28T09:22:46.954Z,9.02
2022-12-28T09:25:13.342Z,5.80
2022-12-28T09:27:39.708Z,4.90
2022-12-28T09:30:06.723Z,5.10
2022-12-28T09:32:33.141Z,7.13
2022-12-28T09:34:59.555Z,8.40
2022-12-28T09:37:26.049Z,5.43
2022-12-28T09:39:55.566Z,4.50
2022-12-28T09:42:29.262Z,4.57
2022-12-28T09:45:09.093Z,4.40
2022-12-28T09:47:50.686Z,3.97
2022-12-28T09:50:17.088Z,4.10
2022-12-28T09:53:15.749Z,4.47
2022-12-28T09:55:51.199Z,3.45
2022-12-28T09:58:18.075Z,4.68
2022-12-28T10:00:44.435Z,3.90
2022-12-28T10:03:24.224Z,3.22
2022-12-28T10:05:51.904Z,4.13
2022-12-28T10:08:22.595Z,3.42
2022-12-28T10:10:50.699Z,3.38
2022-12-28T10:13:53.643Z,4.45
2022-12-28T10:16:18.830Z,3.53
2022-12-28T10:18:46.653Z,3.28
2022-12-28T10:21:13.867Z,3.33
2022-12-28T10:24:04.543Z,4.22
2022-12-28T10:26:30.190Z,3.47
2022-12-28T10:29:00.870Z,3.33
2022-12-28T10:31:31.210Z,3.63
2022-12-28T10:33:57.919Z,4.35
2022-12-28T10:36:31.372Z,4.15
2022-12-28T10:38:58.514Z,4.20
2022-12-28T10:41:35.580Z,5.25
2022-12-28T10:44:39.508Z,4.53
2022-12-28T10:47:18.115Z,3.85
2022-12-28T10:50:18.580Z,4.43
2022-12-28T10:52:37.833Z,4.20
2022-12-28T10:55:28.250Z,4.78
2022-12-28T11:00:41.779Z,4.10
2022-12-28T11:03:23.633Z,3.83
2022-12-28T11:05:57.178Z,4.05
2022-12-28T11:08:24.110Z,3.75
2022-12-28T11:10:57.080Z,4.80
2022-12-28T11:13:23.607Z,5.88
2022-12-28T11:15:50.349Z,5.22
2022-12-28T11:18:18.620Z,5.40
2022-12-28T11:20:47.997Z,7.82
2022-12-28T11:23:23.519Z,5.95
2022-12-28T11:25:50.871Z,4.47
2022-12-28T11:28:22.644Z,5.32
2022-12-28T11:30:51.252Z,4.95
2022-12-28T11:33:35.471Z,3.97
2022-12-28T11:36:06.995Z,4.57
2022-12-28T11:38:42.601Z,4.90
2022-12-28T11:41:19.087Z,4.97
2022-12-28T11:43:50.696Z,4.10
2022-12-28T11:46:23.112Z,3.95
2022-12-28T11:49:25.930Z,3.78
2022-12-28T11:52:17.151Z,4.57
2022-12-28T11:54:53.903Z,4.40
2022-12-28T11:57:41.869Z,3.85
2022-12-28T12:00:24.727Z,3.88
2022-12-28T12:02:58.151Z,4.13
2022-12-28T12:05:39.503Z,3.95
2022-12-28T12:08:12.157Z,4.38
2022-12-28T12:10:39.768Z,3.88
2022-12-28T12:13:24.878Z,4.40
2022-12-28T12:15:54.425Z,4.32
2022-12-28T12:18:24.856Z,4.43
2022-12-28T12:20:55.289Z,4.75
2022-12-28T12:23:36.631Z,4.45
2022-12-28T12:26:27.762Z,4.68
2022-12-28T12:29:18.429Z,3.80
2022-12-28T12:31:50.654Z,4.10
2022-12-28T12:34:38.496Z,3.85
2022-12-28T12:37:13.965Z,4.28
2022-12-28T12:40:06.544Z,4.32
2022-12-28T12:42:57.655Z,4.55
2022-12-28T12:45:38.270Z,3.70
2022-12-28T12:48:55.297Z,3.90
2022-12-28T12:51:32.029Z,3.25
2022-12-28T12:54:20.642Z,2.75
2022-12-28T12:57:00.572Z,2.58
2022-12-28T12:59:53.168Z,3.17
2022-12-28T13:02:38.295Z,3.30
2022-12-28T13:05:06.229Z,3.55
2022-12-28T13:07:34.250Z,2.97
2022-12-28T13:10:04.343Z,3.13
2022-12-28T13:12:30.816Z,4.82
2022-12-28T13:15:04.901Z,3.35
2022-12-28T13:17:35.439Z,6.75
2022-12-28T13:20:28.727Z,5.10
2022-12-28T13:22:56.264Z,6.43
2022-12-28T13:28:03.835Z,4.97
2022-12-28T13:30:30.673Z,4.80
2022-12-28T13:33:00.164Z,3.85
2022-12-28T13:35:30.479Z,3.80
2022-12-28T13:38:09.189Z,4.18
2022-12-28T13:40:38.633Z,3.80
2022-12-28T13:43:20.394Z,3.67
2022-12-28T13:46:10.946Z,3.90
2022-12-28T13:48:42.999Z,3.83
2022-12-28T13:51:11.825Z,3.65
2022-12-28T13:53:38.425Z,3.30
2022-12-28T13:56:07.374Z,3.50
2022-12-28T13:58:39.682Z,3.85
2022-12-28T14:01:13.156Z,3.58
2022-12-28T14:03:46.112Z,3.55
2022-12-28T14:06:18.099Z,3.78
2022-12-28T14:08:45.473Z,3.60
2022-12-28T14:11:12.877Z,3.63
2022-12-28T14:13:39.902Z,2.92
2022-12-28T14:16:07.773Z,2.90
2022-12-28T14:18:34.835Z,2.83
2022-12-28T14:21:02.670Z,2.83
2022-12-28T14:23:31.445Z,3.65
2022-12-28T14:26:02.612Z,2.90
2022-12-28T14:28:40.230Z,3.45
2022-12-28T14:31:08.821Z,2.92
2022-12-28T14:33:41.341Z,3.17
2022-12-28T14:36:17.226Z,2.63
2022-12-28T14:38:51.446Z,2.97
2022-12-28T14:41:22.789Z,2.75
2022-12-28T14:43:59.919Z,2.72
2022-12-28T14:46:38.578Z,3.35
2022-12-28T14:49:34.040Z,2.97
2022-12-28T14:52:09.353Z,2.15
2022-12-28T14:54:45.846Z,1.83
2022-12-28T14:57:27.481Z,3.05
2022-12-28T15:00:07.416Z,2.50
2022-12-28T15:02:33.897Z,2.40
2022-12-28T15:05:01.767Z,2.10
2022-12-28T15:07:30.765Z,2.13
2022-12-28T15:09:57.309Z,2.65
2022-12-28T15:12:23.956Z,2.33
2022-12-28T15:14:50.387Z,2.37
2022-12-28T15:17:17.307Z,1.70
2022-12-28T15:19:47.578Z,2.35
2022-12-28T15:22:14.182Z,2.25
2022-12-28T15:24:44.996Z,2.77
2022-12-28T15:27:11.518Z,1.90
2022-12-28T15:32:24.344Z,2.50
2022-12-28T15:34:51.024Z,2.20
2022-12-28T15:37:17.536Z,1.88
2022-12-28T15:39:44.039Z,1.83
2022-12-28T15:42:10.510Z,2.38
2022-12-28T15:44:37.106Z,2.10
2022-12-28T15:47:03.677Z,2.33
2022-12-28T15:49:30.233Z,2.33
2022-12-28T15:51:56.671Z,2.00
2022-12-28T15:54:23.124Z,2.05
2022-12-28T15:56:54.290Z,2.20
2022-12-28T15:59:20.722Z,2.35
2022-12-28T16:01:48.230Z,3.92
2022-12-28T16:04:15.000Z,2.10
2022-12-28T16:06:44.492Z,2.30
2022-12-28T16:09:12.717Z,2.10
2022-12-28T16:14:08.946Z,2.67
2022-12-28T16:16:38.037Z,1.83
2022-12-28T16:19:05.872Z,2.50
2022-12-28T16:21:32.774Z,3.50
2022-12-28T16:24:00.331Z,2.60
2022-12-28T16:26:27.347Z,2.20
2022-12-28T16:28:53.873Z,2.08
2022-12-28T16:31:25.142Z,2.00
2022-12-28T16:33:56.402Z,2.60
2022-12-28T16:36:23.230Z,2.60
2022-12-28T16:38:49.801Z,2.38
2022-12-28T16:41:17.985Z,2.60
2022-12-28T16:43:45.910Z,2.65
2022-12-28T16:46:12.945Z,2.70
2022-12-28T16:48:39.828Z,3.35
2022-12-28T16:51:06.955Z,3.00
2022-12-28T16:53:34.077Z,2.05
2022-12-28T16:56:01.985Z,2.15
2022-12-28T16:58:29.747Z,2.47
2022-12-28T17:00:57.416Z,2.55
2022-12-28T17:03:24.338Z,2.72
2022-12-28T17:05:52.571Z,2.83
2022-12-28T17:08:19.401Z,2.85
2022-12-28T17:10:46.103Z,2.55
2022-12-28T17:13:12.629Z,3.67
2022-12-28T17:15:39.639Z,3.00
2022-12-28T17:18:06.753Z,2.95
2022-12-28T17:20:36.780Z,2.65
2022-12-28T17:23:03.654Z,2.90
2022-12-28T17:25:31.573Z,2.70
2022-12-28T17:27:58.276Z,2.75
2022-12-28T17:30:24.947Z,3.10
2022-12-28T17:32:51.431Z,2.83
2022-12-28T17:35:17.896Z,2.88
2022-12-28T17:37:44.307Z,3.15
2022-12-28T17:40:11.416Z,3.42
2022-12-28T17:42:38.002Z,3.50
2022-12-28T17:45:11.131Z,3.93
2022-12-28T17:47:38.292Z,3.67
2022-12-28T17:50:05.285Z,4.18
2022-12-28T17:52:31.849Z,4.72
2022-12-28T17:54:58.342Z,4.43
2022-12-28T17:57:24.808Z,3.47
2022-12-28T17:59:51.254Z,3.40
2022-12-28T18:02:17.834Z,3.80
2022-12-28T18:04:44.439Z,3.60
2022-12-28T18:07:11.029Z,4.88
2022-12-28T18:09:37.797Z,3.83
2022-12-28T18:12:04.424Z,3.20
2022-12-28T18:14:30.933Z,3.77
2022-12-28T18:16:57.464Z,3.55
2022-12-28T18:19:23.997Z,3.40
2022-12-28T18:21:50.693Z,3.33
2022-12-28T18:24:20.635Z,3.65
2022-12-28T18:26:48.117Z,4.15
2022-12-28T18:29:14.603Z,3.75
2022-12-28T18:31:41.080Z,5.85
2022-12-28T18:34:07.560Z,3.70
2022-12-28T18:36:34.233Z,3.88
2022-12-28T18:39:02.697Z,4.20
2022-12-28T18:41:33.950Z,3.35
2022-12-28T18:44:02.611Z,3.63
2022-12-28T18:46:29.263Z,3.90
2022-12-28T18:48:56.636Z,4.00
2022-12-28T18:51:23.190Z,3.67
2022-12-28T18:53:50.702Z,3.30
2022-12-28T18:58:49.438Z,3.17
2022-12-28T19:02:04.569Z,3.80
2022-12-28T19:04:07.826Z,3.25
2022-12-28T19:06:34.991Z,3.22
2022-12-28T19:09:02.376Z,3.38
2022-12-28T19:11:29.716Z,3.03
2022-12-28T19:13:56.904Z,3.20
2022-12-28T19:16:30.514Z,3.70
2022-12-28T19:18:58.619Z,3.05
2022-12-28T19:21:41.595Z,3.22
2022-12-28T19:24:18.780Z,3.50
2022-12-28T19:26:46.683Z,3.50
2022-12-28T19:29:14.054Z,3.20
2022-12-28T19:31:40.831Z,3.25
2022-12-28T19:34:07.408Z,3.47
2022-12-28T19:36:33.897Z,3.38
2022-12-28T19:39:00.440Z,3.22
2022-12-28T19:41:26.938Z,3.63
2022-12-28T19:43:53.636Z,3.83
2022-12-28T19:46:23.381Z,3.63
2022-12-28T19:48:53.340Z,4.05
2022-12-28T19:51:19.838Z,4.10
2022-12-28T19:53:46.243Z,3.75
2022-12-28T19:56:16.270Z,3.92
2022-12-28T19:58:44.320Z,3.95
2022-12-28T20:01:17.018Z,3.90
2022-12-28T20:03:44.385Z,3.72
2022-12-28T20:06:18.190Z,4.53
2022-12-28T20:08:46.483Z,4.50
2022-12-28T20:11:12.997Z,3.80
2022-12-28T20:13:40.733Z,4.22
2022-12-28T20:16:07.732Z,4.43
2022-12-28T20:18:34.350Z,3.78
2022-12-28T20:21:22.137Z,3.97
2022-12-28T20:23:50.191Z,4.07
2022-12-28T20:26:18.685Z,4.22
2022-12-28T20:28:45.799Z,4.13
2022-12-28T20:31:14.796Z,4.35
2022-12-28T20:33:42.438Z,4.03
2022-12-28T20:36:12.956Z,3.88
2022-12-28T20:38:39.844Z,3.75
2022-12-28T20:41:35.529Z,4.40
2022-12-28T20:44:05.287Z,3.90
2022-12-28T20:46:32.980Z,3.80
2022-12-28T20:48:59.719Z,3.22
2022-12-28T20:51:27.394Z,3.80
2022-12-28T20:53:54.145Z,4.00
2022-12-28T20:56:22.594Z,4.38
2022-12-28T20:58:49.585Z,3.33
2022-12-28T21:01:16.607Z,3.88
2022-12-28T21:03:44.497Z,4.00
2022-12-28T21:06:11.424Z,4.93
2022-12-28T21:08:37.997Z,3.88
2022-12-28T21:11:05.157Z,3.85
2022-12-28T21:13:31.900Z,3.83
2022-12-28T21:15:58.783Z,3.72
2022-12-28T21:18:25.353Z,3.80
2022-12-28T21:20:55.492Z,3.25
2022-12-28T21:23:22.038Z,3.35
2022-12-28T21:25:48.788Z,2.85
2022-12-28T21:28:15.288Z,2.85
2022-12-28T21:30:41.816Z,3.30
2022-12-28T21:33:08.456Z,3.03
2022-12-28T21:35:35.086Z,3.60
2022-12-28T21:38:01.899Z,3.30
2022-12-28T21:40:28.578Z,3.13
2022-12-28T21:42:55.065Z,3.90
2022-12-28T21:45:21.683Z,3.70
2022-12-28T21:47:48.214Z,3.05
2022-12-28T21:50:14.688Z,3.10
2022-12-28T21:52:41.152Z,3.00
2022-12-28T21:55:26.607Z,3.38
2022-12-28T21:57:54.037Z,3.13
2022-12-28T22:03:24.440Z,3.13
2022-12-28T22:06:02.857Z,2.97
2022-12-28T22:08:48.811Z,3.10
2022-12-28T22:11:34.306Z,2.88
2022-12-28T22:14:00.816Z,2.78
2022-12-28T22:16:27.825Z,3.10
2022-12-28T22:19:02.206Z,3.45
2022-12-28T22:21:29.508Z,3.13
2022-12-28T22:23:55.969Z,3.40
2022-12-28T22:26:22.413Z,3.78
2022-12-28T22:28:48.931Z,3.15
2022-12-28T22:31:15.328Z,3.10
2022-12-28T22:33:41.857Z,3.33
2022-12-28T22:36:17.548Z,3.90
2022-12-28T22:38:44.708Z,3.60
2022-12-28T22:41:11.218Z,3.05
2022-12-28T22:43:37.699Z,3.37
2022-12-28T22:46:06.736Z,3.37
2022-12-28T22:48:33.591Z,3.45
2022-12-28T22:51:11.551Z,3.67
2022-12-28T22:56:06.749Z,3.10
2022-12-28T22:58:33.995Z,3.28
2022-12-28T23:01:05.733Z,2.90
2022-12-28T23:03:32.661Z,3.20
2022-12-28T23:05:59.274Z,2.92
2022-12-28T23:08:25.768Z,2.80
2022-12-28T23:11:00.780Z,2.88
2022-12-28T23:13:28.421Z,3.20
2022-12-28T23:16:03.518Z,3.15
2022-12-28T23:18:49.680Z,2.55
2022-12-28T23:21:38.288Z,2.58
2022-12-28T23:24:24.679Z,2.83
2022-12-28T23:27:10.373Z,2.40
2022-12-28T23:29:36.880Z,2.58
2022-12-28T23:32:03.481Z,2.60
2022-12-28T23:34:30.004Z,2.47
2022-12-28T23:36:56.401Z,2.60
2022-12-28T23:39:23.558Z,2.40
2022-12-28T23:41:51.289Z,2.70
2022-12-28T23:44:23.596Z,2.50
2022-12-28T23:46:55.264Z,2.47
2022-12-28T23:49:24.930Z,2.50
2022-12-28T23:51:51.490Z,2.40
2022-12-28T23:54:19.617Z,2.37
2022-12-28T23:56:47.198Z,2.55
2022-12-28T23:59:13.596Z,2.50
